Time;durP1;ratioP1;P1;durP2;ratioP2;P2;SDS_P1;SDS_P2;PMS_P1;PMS_P2;Temp;Humidity;BMP_temperature;BMP_pressure;BME280_temperature;BME280_humidity;BME280_pressure;Samples;Min_cycle;Max_cycle;Signal;HPM_P1;HPM_P2
2022/05/15 00:02:03;;;;;;;9.23;3.97;;;12.30;99.90;;;;;;5075689;28;20067;-71
2022/05/15 00:04:29;;;;;;;12.23;4.22;;;12.30;99.90;;;;;;5074019;28;20074;-70
2022/05/15 00:06:55;;;;;;;6.50;3.50;;;12.20;99.90;;;;;;5076135;28;20028;-71
2022/05/15 00:09:21;;;;;;;8.07;3.72;;;12.20;99.90;;;;;;5086289;28;20028;-70
2022/05/15 00:11:47;;;;;;;12.77;4.65;;;12.20;99.90;;;;;;5091224;28;20031;-71
2022/05/15 00:14:12;;;;;;;13.73;4.00;;;12.20;99.90;;;;;;5078158;28;20496;-70
2022/05/15 00:16:38;;;;;;;9.60;3.72;;;12.20;99.90;;;;;;5078261;28;20029;-73
2022/05/15 00:19:04;;;;;;;7.80;3.50;;;12.20;99.90;;;;;;5073356;28;20029;-71
2022/05/15 00:21:30;;;;;;;8.65;4.10;;;12.20;99.90;;;;;;5073425;28;20043;-71
2022/05/15 00:23:55;;;;;;;9.60;3.75;;;12.20;99.90;;;;;;5073578;28;20401;-71
2022/05/15 00:26:21;;;;;;;12.32;4.18;;;12.20;99.90;;;;;;5074012;28;20020;-71
2022/05/15 00:28:47;;;;;;;7.90;3.72;;;12.20;99.90;;;;;;5095359;28;20020;-71
2022/05/15 00:31:12;;;;;;;10.82;3.72;;;12.20;99.90;;;;;;5073207;28;20024;-71
2022/05/15 00:33:38;;;;;;;6.60;3.80;;;12.20;99.90;;;;;;5073770;28;20054;-71
2022/05/15 00:36:04;;;;;;;5.78;3.78;;;12.20;99.90;;;;;;5088384;28;20035;-71
2022/05/15 00:38:30;;;;;;;8.48;3.47;;;12.10;99.90;;;;;;5074642;28;20118;-71
2022/05/15 00:40:57;;;;;;;7.10;3.78;;;12.10;99.90;;;;;;5073267;28;20051;-71
2022/05/15 00:43:51;;;;;;;10.15;4.57;;;12.10;99.90;;;;;;5075942;28;20032;-72
2022/05/15 00:46:28;;;;;;;10.82;3.88;;;12.10;99.90;;;;;;5073326;28;20035;-72
2022/05/15 00:48:54;;;;;;;;;;;12.10;99.90;;;;;;5092791;28;20028;-72
2022/05/15 00:51:41;;;;;;;6.72;3.00;;;12.10;99.90;;;;;;5092414;28;20302;-72
2022/05/15 00:54:12;;;;;;;9.10;4.00;;;12.10;99.90;;;;;;5073078;28;20028;-71
2022/05/15 00:56:42;;;;;;;8.10;3.42;;;12.20;99.90;;;;;;5087492;28;20032;-71
2022/05/15 00:59:13;;;;;;;8.70;3.78;;;12.20;99.90;;;;;;5072825;28;20051;-72
2022/05/15 01:01:39;;;;;;;6.07;3.50;;;12.20;99.90;;;;;;5073735;28;20043;-72
2022/05/15 01:04:05;;;;;;;9.95;4.05;;;12.30;99.90;;;;;;5091318;28;20047;-71
2022/05/15 01:06:31;;;;;;;8.45;3.42;;;12.40;99.90;;;;;;5093186;28;20020;-71
2022/05/15 01:09:00;;;;;;;8.65;3.22;;;12.40;99.90;;;;;;5090895;28;20028;-71
2022/05/15 01:11:25;;;;;;;8.50;3.40;;;12.40;99.90;;;;;;5075084;28;20473;-71
2022/05/15 01:13:52;;;;;;;13.35;4.00;;;12.40;99.90;;;;;;5090650;28;20020;-70
2022/05/15 01:16:25;;;;;;;9.25;3.30;;;12.40;99.90;;;;;;5085687;28;20028;-72
2022/05/15 01:18:58;;;;;;;6.97;3.88;;;12.40;99.90;;;;;;5073864;28;20024;-73
2022/05/15 01:21:26;;;;;;;7.45;3.53;;;12.40;99.90;;;;;;5072521;28;20397;-71
2022/05/15 01:23:52;;;;;;;10.80;3.70;;;12.40;99.90;;;;;;5086448;28;20044;-72
2022/05/15 01:26:18;;;;;;;7.43;3.30;;;12.40;99.90;;;;;;5078238;28;20431;-71
2022/05/15 01:28:45;;;;;;;6.85;2.78;;;12.40;99.90;;;;;;5073299;28;20016;-71
2022/05/15 01:31:11;;;;;;;8.85;3.40;;;12.40;99.90;;;;;;5072028;28;20029;-73
2022/05/15 01:33:37;;;;;;;8.77;3.58;;;12.30;99.90;;;;;;5077516;28;20028;-72
2022/05/15 01:36:04;;;;;;;7.50;3.60;;;12.30;99.90;;;;;;5085544;28;20062;-72
2022/05/15 01:38:29;;;;;;;11.25;3.50;;;12.40;99.90;;;;;;5074161;28;20034;-72
2022/05/15 01:40:55;;;;;;;18.73;4.70;;;12.40;99.90;;;;;;5072638;28;20100;-72
2022/05/15 01:43:21;;;;;;;10.40;4.00;;;12.40;99.90;;;;;;5087053;28;20036;-72
2022/05/15 01:45:46;;;;;;;10.23;3.80;;;12.50;99.90;;;;;;5071661;28;20017;-72
2022/05/15 01:48:12;;;;;;;8.15;3.45;;;12.50;99.90;;;;;;5072254;28;20491;-73
2022/05/15 01:50:38;;;;;;;9.10;4.18;;;12.60;99.90;;;;;;5078485;28;20085;-72
2022/05/15 01:53:04;;;;;;;9.23;4.18;;;12.60;99.90;;;;;;5091578;28;20028;-73
2022/05/15 01:55:30;;;;;;;10.68;4.22;;;12.70;99.90;;;;;;5076695;28;20031;-71
2022/05/15 01:57:55;;;;;;;11.18;3.58;;;12.70;99.90;;;;;;5082615;28;20032;-72
2022/05/15 02:00:23;;;;;;;10.90;4.18;;;12.70;99.90;;;;;;5091138;28;20031;-72
2022/05/15 02:02:49;;;;;;;;;;;12.70;99.90;;;;;;5084915;28;20023;-71
2022/05/15 02:05:16;;;;;;;9.70;4.30;;;12.70;99.90;;;;;;5076214;28;19912;-71
2022/05/15 02:07:42;;;;;;;14.37;4.03;;;12.80;99.90;;;;;;5090734;28;20362;-71
2022/05/15 02:10:08;;;;;;;12.70;4.55;;;12.70;99.90;;;;;;5071856;28;20291;-72
2022/05/15 02:12:34;;;;;;;10.18;4.28;;;12.80;99.90;;;;;;5071588;28;20362;-72
2022/05/15 02:15:01;;;;;;;10.45;4.68;;;12.80;99.90;;;;;;5073517;28;20103;-72
2022/05/15 02:17:27;;;;;;;10.85;4.15;;;12.80;99.90;;;;;;5083342;28;20062;-71
2022/05/15 02:19:53;;;;;;;12.25;5.07;;;12.70;99.90;;;;;;5091920;28;20036;-72
2022/05/15 02:22:19;;;;;;;10.15;4.60;;;12.70;99.90;;;;;;5088567;28;20119;-71
2022/05/15 02:24:45;;;;;;;10.45;4.80;;;12.60;99.90;;;;;;5071885;28;20103;-71
2022/05/15 02:27:11;;;;;;;16.48;6.18;;;12.60;99.90;;;;;;5072552;28;20028;-73
2022/05/15 02:29:37;;;;;;;9.68;5.20;;;12.50;99.90;;;;;;5079886;28;20024;-72
2022/05/15 02:32:03;;;;;;;10.80;4.85;;;12.60;99.90;;;;;;5091797;28;20353;-72
2022/05/15 02:34:29;;;;;;;7.22;4.43;;;12.60;99.90;;;;;;5091813;28;20032;-71
2022/05/15 02:36:55;;;;;;;9.60;4.70;;;12.60;99.90;;;;;;5075811;28;20039;-72
2022/05/15 02:39:21;;;;;;;7.00;4.18;;;12.50;99.90;;;;;;5071936;28;20387;-72
2022/05/15 02:41:46;;;;;;;9.95;4.32;;;12.50;99.90;;;;;;5082342;28;20146;-72
2022/05/15 02:44:12;;;;;;;13.23;4.18;;;12.50;99.90;;;;;;5089460;28;20066;-72
2022/05/15 02:46:38;;;;;;;10.13;3.92;;;12.50;99.90;;;;;;5086880;28;20113;-72
2022/05/15 02:51:47;;;;;;;9.73;4.07;;;12.50;99.90;;;;;;5091641;28;20024;-72
2022/05/15 02:54:13;;;;;;;10.20;4.22;;;12.50;99.90;;;;;;5092852;28;20460;-72
2022/05/15 02:56:39;;;;;;;12.25;4.45;;;12.50;99.90;;;;;;5095199;28;20441;-72
2022/05/15 02:59:05;;;;;;;12.77;4.75;;;12.50;99.90;;;;;;5094844;28;20416;-74
2022/05/15 03:01:31;;;;;;;10.35;4.32;;;12.60;99.90;;;;;;5090043;28;20029;-73
2022/05/15 03:03:57;;;;;;;13.55;5.63;;;12.60;99.90;;;;;;5075057;28;20492;-72
2022/05/15 03:06:22;;;;;;;11.30;4.93;;;12.60;99.90;;;;;;5079221;28;20498;-72
2022/05/15 03:08:50;;;;;;;8.27;4.82;;;12.60;99.90;;;;;;5091064;28;20020;-71
2022/05/15 03:11:16;;;;;;;15.00;4.57;;;12.60;99.90;;;;;;5094182;28;20402;-72
2022/05/15 03:13:42;;;;;;;11.75;5.43;;;12.50;99.90;;;;;;5094434;28;20032;-73
2022/05/15 03:16:08;;;;;;;9.75;4.78;;;12.50;99.90;;;;;;5090024;28;20129;-72
2022/05/15 03:18:44;;;;;;;12.55;4.88;;;12.50;99.90;;;;;;5090501;28;20032;-72
2022/05/15 03:21:13;;;;;;;13.63;5.97;;;12.50;99.90;;;;;;5089467;28;20033;-72
2022/05/15 03:23:39;;;;;;;12.23;5.20;;;12.50;99.90;;;;;;5085919;28;20056;-72
2022/05/15 03:26:04;;;;;;;10.82;5.45;;;12.50;99.90;;;;;;5085865;28;20107;-72
2022/05/15 03:28:30;;;;;;;9.63;4.78;;;12.50;99.90;;;;;;5085285;28;20107;-72
2022/05/15 03:30:56;;;;;;;16.15;5.85;;;12.50;99.90;;;;;;5094184;28;20365;-72
2022/05/15 03:33:21;;;;;;;12.77;4.78;;;12.40;99.90;;;;;;5080023;28;20094;-72
2022/05/15 03:35:47;;;;;;;11.18;5.50;;;12.40;99.90;;;;;;5085081;28;20111;-72
2022/05/15 03:38:13;;;;;;;13.40;5.13;;;12.40;99.90;;;;;;5094044;28;20087;-72
2022/05/15 03:40:38;;;;;;;15.25;5.80;;;12.40;99.90;;;;;;5078659;28;20033;-72
2022/05/15 03:43:04;;;;;;;11.23;4.95;;;12.40;99.90;;;;;;5091332;28;20479;-72
2022/05/15 03:45:30;;;;;;;11.85;5.10;;;12.40;99.90;;;;;;5089292;28;20055;-72
2022/05/15 03:47:56;;;;;;;12.63;5.45;;;12.40;99.90;;;;;;5078747;28;20035;-72
2022/05/15 03:50:25;;;;;;;10.90;4.63;;;12.40;99.90;;;;;;5074585;28;21346;-72
2022/05/15 03:52:51;;;;;;;8.25;4.57;;;12.50;99.90;;;;;;5074156;28;20025;-72
2022/05/15 03:55:17;;;;;;;12.75;5.30;;;12.50;99.90;;;;;;5082266;28;20028;-73
2022/05/15 03:57:43;;;;;;;8.68;4.93;;;12.50;99.90;;;;;;5082487;28;20029;-73
2022/05/15 04:00:14;;;;;;;11.55;5.60;;;12.50;99.90;;;;;;5082742;28;20067;-72
2022/05/15 04:02:40;;;;;;;10.93;4.57;;;12.50;99.90;;;;;;5093226;28;20040;-72
2022/05/15 04:05:07;;;;;;;11.32;5.38;;;12.50;99.90;;;;;;5085150;28;20028;-72
2022/05/15 04:07:33;;;;;;;10.17;4.73;;;12.40;99.90;;;;;;5112490;27;20024;-72
2022/05/15 04:09:59;;;;;;;11.90;5.07;;;12.40;99.90;;;;;;5092142;28;20261;-72
2022/05/15 04:12:25;;;;;;;9.73;5.15;;;12.30;99.90;;;;;;5076794;28;20019;-72
2022/05/15 04:14:50;;;;;;;12.23;5.03;;;12.30;99.90;;;;;;5092388;28;20028;-72
2022/05/15 04:17:16;;;;;;;11.52;5.25;;;12.30;99.90;;;;;;5074789;28;20468;-73
2022/05/15 04:19:42;;;;;;;11.98;6.00;;;12.20;99.90;;;;;;5074652;28;20054;-72
2022/05/15 04:22:07;;;;;;;13.13;4.90;;;12.20;99.90;;;;;;5073605;28;20029;-73
2022/05/15 04:24:34;;;;;;;9.20;5.60;;;12.10;99.90;;;;;;5074857;28;20035;-73
2022/05/15 04:27:00;;;;;;;10.95;5.53;;;12.10;99.90;;;;;;5085195;28;20073;-74
2022/05/15 04:29:27;;;;;;;15.75;6.93;;;12.00;99.90;;;;;;5077171;28;20484;-73
2022/05/15 04:31:56;;;;;;;11.98;5.72;;;12.00;99.90;;;;;;5091824;28;20050;-73
2022/05/15 04:34:27;;;;;;;13.65;5.95;;;12.00;99.90;;;;;;5080487;28;20536;-72
2022/05/15 04:36:53;;;;;;;15.57;6.13;;;12.10;99.90;;;;;;5089390;28;20024;-72
2022/05/15 04:39:19;;;;;;;11.82;6.40;;;12.10;99.90;;;;;;5093164;28;20035;-72
2022/05/15 04:41:45;;;;;;;15.27;5.80;;;12.10;99.90;;;;;;5093284;28;20107;-72
2022/05/15 04:44:12;;;;;;;11.02;5.43;;;12.10;99.90;;;;;;5079681;28;20111;-72
2022/05/15 04:46:39;;;;;;;18.03;6.73;;;12.20;99.90;;;;;;5072884;28;20024;-72
2022/05/15 04:49:05;;;;;;;16.73;7.00;;;12.30;99.90;;;;;;5078733;28;20106;-73
2022/05/15 04:51:31;;;;;;;12.50;6.35;;;12.30;99.90;;;;;;5081719;28;20070;-72
2022/05/15 04:53:57;;;;;;;15.85;5.88;;;12.30;99.90;;;;;;5073335;28;20059;-72
2022/05/15 04:56:23;;;;;;;15.20;6.18;;;12.30;99.90;;;;;;5091588;28;20483;-72
2022/05/15 04:58:49;;;;;;;13.95;5.78;;;12.30;99.90;;;;;;5077024;28;20082;-73
2022/05/15 05:01:15;;;;;;;16.25;6.30;;;12.40;99.90;;;;;;5076635;28;20036;-73
2022/05/15 05:03:41;;;;;;;17.80;6.43;;;12.40;99.90;;;;;;5087254;28;20456;-72
2022/05/15 05:06:06;;;;;;;13.43;6.57;;;12.50;99.90;;;;;;5074155;28;20481;-73
2022/05/15 05:08:33;;;;;;;17.83;7.03;;;12.50;99.90;;;;;;5087087;28;20024;-73
2022/05/15 05:10:59;;;;;;;23.77;7.57;;;12.60;99.90;;;;;;5085350;28;20028;-73
2022/05/15 05:13:25;;;;;;;12.90;6.70;;;12.60;99.90;;;;;;5072328;28;20027;-72
2022/05/15 05:15:50;;;;;;;19.95;6.60;;;12.60;99.90;;;;;;5084664;28;20115;-73
2022/05/15 05:18:17;;;;;;;13.98;5.72;;;12.70;99.90;;;;;;5092537;28;20034;-73
2022/05/15 05:20:45;;;;;;;10.30;6.05;;;12.70;99.90;;;;;;5087932;28;20024;-72
2022/05/15 05:23:11;;;;;;;17.52;6.53;;;12.80;99.90;;;;;;5089793;28;20051;-72
2022/05/15 05:25:37;;;;;;;16.35;6.35;;;12.80;99.90;;;;;;5084021;28;20082;-72
2022/05/15 05:28:03;;;;;;;12.23;6.00;;;12.90;99.90;;;;;;5080997;28;20718;-72
2022/05/15 05:30:29;;;;;;;11.43;5.63;;;12.90;99.90;;;;;;5075502;28;20084;-72
2022/05/15 05:32:55;;;;;;;15.38;6.25;;;13.00;99.90;;;;;;5072233;28;20024;-73
2022/05/15 05:35:23;;;;;;;13.70;6.65;;;13.00;99.90;;;;;;5086102;28;20048;-72
2022/05/15 05:37:50;;;;;;;14.80;7.05;;;13.00;99.90;;;;;;5076363;28;20073;-73
2022/05/15 05:40:18;;;;;;;13.70;6.63;;;13.00;99.90;;;;;;5076052;28;20035;-72
2022/05/15 05:42:43;;;;;;;14.13;5.85;;;13.10;99.90;;;;;;5073209;28;20378;-72
2022/05/15 05:45:10;;;;;;;12.43;6.03;;;13.20;99.90;;;;;;5079340;28;20035;-72
2022/05/15 05:47:36;;;;;;;13.40;5.93;;;13.20;99.90;;;;;;5078720;28;20495;-72
2022/05/15 05:50:03;;;;;;;13.88;5.45;;;13.20;99.90;;;;;;5082778;28;20380;-72
2022/05/15 05:52:28;;;;;;;17.30;5.82;;;13.20;99.90;;;;;;5096528;28;20025;-72
2022/05/15 05:54:54;;;;;;;11.77;5.00;;;13.20;99.90;;;;;;5081770;28;20043;-72
2022/05/15 05:57:20;;;;;;;15.27;5.45;;;13.20;99.90;;;;;;5075526;28;20365;-72
2022/05/15 05:59:46;;;;;;;16.10;5.70;;;13.10;99.90;;;;;;5090211;28;20024;-72
2022/05/15 06:02:11;;;;;;;13.73;5.10;;;13.10;99.90;;;;;;5082008;28;20043;-72
2022/05/15 06:04:41;;;;;;;13.57;5.53;;;13.10;99.90;;;;;;5076049;28;20032;-72
2022/05/15 06:07:12;;;;;;;8.27;4.90;;;13.00;99.90;;;;;;5091208;28;20032;-72
2022/05/15 06:09:42;;;;;;;9.65;5.45;;;13.10;99.90;;;;;;5080196;28;20013;-72
2022/05/15 06:12:08;;;;;;;11.15;5.45;;;13.00;99.90;;;;;;5086849;28;20046;-72
2022/05/15 06:14:34;;;;;;;14.80;5.93;;;13.00;99.90;;;;;;5073514;28;20028;-72
2022/05/15 06:17:00;;;;;;;16.35;6.57;;;13.00;99.90;;;;;;5081996;28;20031;-72
2022/05/15 06:19:26;;;;;;;15.82;7.57;;;13.00;99.90;;;;;;5087413;28;20085;-72
2022/05/15 06:21:52;;;;;;;17.05;6.40;;;13.00;99.90;;;;;;5071916;28;20105;-72
2022/05/15 06:24:18;;;;;;;16.45;5.65;;;13.00;99.90;;;;;;5073473;28;20519;-72
2022/05/15 06:26:44;;;;;;;12.88;5.85;;;13.00;99.90;;;;;;5082218;28;20020;-71
2022/05/15 06:29:09;;;;;;;15.57;6.50;;;13.10;99.90;;;;;;5083219;28;20495;-72
2022/05/15 06:31:35;;;;;;;13.48;6.25;;;13.10;99.90;;;;;;5075939;28;20020;-73
2022/05/15 06:34:01;;;;;;;13.90;7.28;;;13.20;99.90;;;;;;5077640;28;20032;-73
2022/05/15 06:36:26;;;;;;;13.70;7.32;;;13.20;99.90;;;;;;5088570;28;20024;-71
2022/05/15 06:38:52;;;;;;;23.73;8.10;;;13.40;99.90;;;;;;5083298;28;20077;-72
2022/05/15 06:41:18;;;;;;;19.30;6.68;;;13.50;99.90;;;;;;5086726;28;20391;-72
2022/05/15 06:43:44;;;;;;;13.25;6.40;;;13.60;99.90;;;;;;5077862;28;20024;-72
2022/05/15 06:46:09;;;;;;;15.75;6.45;;;13.70;99.90;;;;;;5080012;28;20090;-70
2022/05/15 06:48:38;;;;;;;15.15;6.65;;;13.80;99.90;;;;;;5075582;28;20033;-71
2022/05/15 06:51:03;;;;;;;14.30;6.40;;;14.00;99.90;;;;;;5091688;28;20028;-72
2022/05/15 06:53:29;;;;;;;15.68;6.88;;;14.00;99.90;;;;;;5096524;28;20064;-73
2022/05/15 06:58:39;;;;;;;17.40;7.53;;;14.20;99.90;;;;;;5096282;28;20059;-72
2022/05/15 07:01:05;;;;;;;20.35;6.97;;;14.20;99.90;;;;;;5081627;28;20496;-73
2022/05/15 07:03:30;;;;;;;15.32;6.55;;;14.30;99.90;;;;;;5092952;28;20023;-71
2022/05/15 07:05:56;;;;;;;14.30;6.95;;;14.30;99.90;;;;;;5079554;28;20035;-72
2022/05/15 07:08:22;;;;;;;18.60;6.55;;;14.40;99.90;;;;;;5094298;28;20020;-71
2022/05/15 07:10:48;;;;;;;12.95;6.90;;;14.40;99.90;;;;;;5083595;28;20017;-72
2022/05/15 07:13:14;;;;;;;15.25;6.60;;;14.40;99.90;;;;;;5076289;28;20040;-72
2022/05/15 07:15:40;;;;;;;14.18;6.53;;;14.50;99.90;;;;;;5087718;28;20024;-70
2022/05/15 07:18:07;;;;;;;13.43;7.03;;;14.50;99.90;;;;;;5095012;28;20081;-74
2022/05/15 07:20:33;;;;;;;13.50;6.78;;;14.60;99.90;;;;;;5077701;28;20020;-76
2022/05/15 07:22:59;;;;;;;13.68;7.28;;;14.60;99.90;;;;;;5089963;28;20040;-71
2022/05/15 07:25:25;;;;;;;15.98;7.30;;;14.60;99.90;;;;;;5081520;28;20373;-73
2022/05/15 07:27:51;;;;;;;15.18;6.78;;;14.70;99.90;;;;;;5104910;28;20020;-73
2022/05/15 07:30:17;;;;;;;15.48;7.05;;;14.70;99.90;;;;;;5091307;28;20066;-74
2022/05/15 07:32:43;;;;;;;15.75;7.38;;;14.80;99.90;;;;;;5094709;28;20104;-74
2022/05/15 07:35:09;;;;;;;13.52;6.82;;;14.80;99.90;;;;;;5091921;28;20498;-73
2022/05/15 07:37:35;;;;;;;16.75;6.90;;;14.90;99.90;;;;;;5089796;28;20028;-72
2022/05/15 07:40:01;;;;;;;16.70;7.25;;;14.90;99.90;;;;;;5087207;28;20126;-74
2022/05/15 07:42:26;;;;;;;11.10;6.35;;;15.00;99.90;;;;;;5095468;28;20031;-76
2022/05/15 07:44:57;;;;;;;19.17;7.70;;;15.10;99.90;;;;;;5093335;28;20028;-74
2022/05/15 07:47:23;;;;;;;14.40;6.57;;;15.10;99.90;;;;;;5080524;28;20066;-73
2022/05/15 07:49:49;;;;;;;13.00;6.18;;;15.10;99.90;;;;;;5087337;28;20477;-72
2022/05/15 07:52:15;;;;;;;16.23;7.43;;;15.10;99.90;;;;;;5087985;28;20024;-73
2022/05/15 07:54:41;;;;;;;13.38;6.75;;;15.10;99.90;;;;;;5088971;28;20025;-77
2022/05/15 07:57:07;;;;;;;12.20;6.65;;;15.10;99.90;;;;;;5090049;28;20024;-74
2022/05/15 07:59:32;;;;;;;13.40;7.10;;;15.00;99.90;;;;;;5101838;28;20023;-72
2022/05/15 08:01:59;;;;;;;15.00;7.40;;;15.00;99.90;;;;;;5102436;28;20039;-71
2022/05/15 08:04:25;;;;;;;19.05;7.25;;;14.90;99.90;;;;;;5102584;28;20055;-72
2022/05/15 08:09:35;;;;;;;12.70;7.53;;;14.80;99.90;;;;;;5109318;28;20050;-73
2022/05/15 08:12:01;;;;;;;13.30;6.28;;;14.70;99.90;;;;;;5092290;28;20487;-71
2022/05/15 08:14:29;;;;;;;12.45;6.03;;;14.70;99.90;;;;;;5102099;28;20035;-70
2022/05/15 08:16:54;;;;;;;14.45;6.40;;;14.70;99.90;;;;;;5103537;28;20472;-68
2022/05/15 08:24:48;;;;;;;15.23;7.82;;;14.40;99.90;;;;;;5085097;28;20044;-66
2022/05/15 08:27:14;;;;;;;18.40;7.63;;;14.40;99.90;;;;;;5074208;28;20024;-69
2022/05/15 08:29:40;;;;;;;14.80;7.57;;;14.30;99.90;;;;;;5072150;28;20028;-66
2022/05/15 08:32:07;;;;;;;16.65;8.02;;;14.20;99.90;;;;;;5085139;28;20016;-67
2022/05/15 08:34:34;;;;;;;10.85;6.85;;;14.20;99.90;;;;;;5112272;28;20027;-67
2022/05/15 08:37:03;;;;;;;16.25;6.95;;;14.20;99.90;;;;;;5093986;28;20445;-66
2022/05/15 08:39:30;;;;;;;14.07;7.22;;;14.10;99.90;;;;;;5088739;28;20078;-69
2022/05/15 08:42:06;;;;;;;21.30;8.27;;;14.10;99.90;;;;;;5091381;28;20540;-67
2022/05/15 08:44:36;;;;;;;21.10;8.27;;;14.20;99.90;;;;;;5094965;28;20542;-65
2022/05/15 08:47:16;;;;;;;16.33;7.40;;;14.10;99.90;;;;;;5089060;28;20399;-67
2022/05/15 08:49:54;;;;;;;18.65;8.00;;;14.10;99.90;;;;;;5090596;28;20020;-66
2022/05/15 08:52:30;;;;;;;21.88;8.10;;;14.10;99.90;;;;;;5092073;28;21018;-65
2022/05/15 08:55:03;;;;;;;16.05;7.97;;;14.10;99.90;;;;;;5093231;28;20024;-65
2022/05/15 08:57:52;;;;;;;17.30;8.77;;;14.10;99.90;;;;;;5093130;28;20453;-66
2022/05/15 09:00:31;;;;;;;24.13;9.15;;;14.10;99.90;;;;;;5109449;28;20056;-66
2022/05/15 09:03:20;;;;;;;23.48;9.50;;;14.20;99.90;;;;;;5092619;28;20052;-67
2022/05/15 09:06:06;;;;;;;17.25;9.10;;;14.20;99.90;;;;;;5093324;28;20035;-66
2022/05/15 09:09:02;;;;;;;18.08;8.77;;;14.30;99.90;;;;;;5092915;28;20031;-67
2022/05/15 09:11:43;;;;;;;26.00;10.35;;;14.40;99.90;;;;;;5092187;28;20111;-67
2022/05/15 09:14:38;;;;;;;14.73;7.57;;;14.50;99.90;;;;;;5092046;28;20024;-66
2022/05/15 09:17:36;;;;;;;25.23;8.60;;;14.70;99.90;;;;;;5092074;28;20028;-66
2022/05/15 09:20:09;;;;;;;19.73;9.00;;;14.80;99.90;;;;;;5083302;28;20040;-67
2022/05/15 09:22:39;;;;;;;29.00;8.63;;;15.10;99.90;;;;;;5090615;28;20043;-67
2022/05/15 09:25:19;;;;;;;15.20;8.00;;;15.40;99.90;;;;;;5091258;28;20028;-67
2022/05/15 09:28:08;;;;;;;18.48;7.60;;;15.60;99.90;;;;;;5092281;28;20044;-67
2022/05/15 09:30:38;;;;;;;13.70;7.65;;;15.70;99.90;;;;;;5091604;28;20111;-67
2022/05/15 09:33:06;;;;;;;15.57;7.63;;;15.80;99.90;;;;;;5092232;28;20475;-68
2022/05/15 09:35:41;;;;;;;15.20;7.55;;;15.90;99.90;;;;;;5092197;28;20024;-67
2022/05/15 09:43:56;;;;;;;14.00;6.90;;;16.00;99.90;;;;;;5089573;28;20124;-68
2022/05/15 09:46:27;;;;;;;19.73;7.22;;;16.20;99.90;;;;;;5091697;28;20541;-68
2022/05/15 09:49:22;;;;;;;18.65;7.25;;;16.20;99.90;;;;;;5091960;28;20463;-68
2022/05/15 09:51:50;;;;;;;14.75;7.43;;;16.30;99.90;;;;;;5091914;28;20477;-67
2022/05/15 09:54:29;;;;;;;12.57;6.75;;;16.40;99.90;;;;;;5091584;28;20024;-67
2022/05/15 09:57:22;;;;;;;11.23;6.85;;;16.50;99.90;;;;;;5085843;28;20032;-67
2022/05/15 09:59:57;;;;;;;12.48;6.32;;;16.80;99.90;;;;;;5089175;28;20776;-67
2022/05/15 10:02:44;;;;;;;10.23;5.63;;;16.80;99.90;;;;;;5091048;28;20038;-67
2022/05/15 10:05:26;;;;;;;11.90;5.38;;;16.80;99.90;;;;;;5088739;28;20028;-68
2022/05/15 10:08:05;;;;;;;9.38;5.97;;;16.80;99.90;;;;;;5089315;28;20349;-68
2022/05/15 10:10:41;;;;;;;9.57;5.50;;;16.90;99.90;;;;;;5091479;28;20032;-67
2022/05/15 10:13:41;;;;;;;7.65;5.35;;;16.90;99.90;;;;;;5091126;28;20047;-67
2022/05/15 10:16:34;;;;;;;11.70;5.07;;;16.90;99.90;;;;;;5090542;28;20383;-68
2022/05/15 10:19:13;;;;;;;11.60;5.80;;;16.80;99.90;;;;;;5108308;28;20028;-67
2022/05/15 10:21:47;;;;;;;12.38;5.30;;;16.80;99.90;;;;;;5103126;28;20028;-67
2022/05/15 10:24:35;;;;;;;10.05;5.00;;;16.80;99.90;;;;;;5090644;28;20044;-68
2022/05/15 10:27:19;;;;;;;10.27;5.47;;;16.80;99.90;;;;;;5090458;28;20550;-67
2022/05/15 10:29:52;;;;;;;8.93;5.07;;;16.80;99.90;;;;;;5091310;28;20119;-68
2022/05/15 10:32:22;;;;;;;11.85;5.90;;;16.90;99.90;;;;;;5091425;28;20039;-69
2022/05/15 10:34:47;;;;;;;10.13;5.50;;;16.90;99.90;;;;;;5091619;28;21660;-69
2022/05/15 10:37:56;;;;;;;12.38;5.35;;;16.90;99.90;;;;;;5097968;28;20053;-68
2022/05/15 10:40:25;;;;;;;13.85;5.82;;;16.90;99.90;;;;;;5071482;28;20480;-69
2022/05/15 10:43:09;;;;;;;10.05;5.20;;;16.80;99.90;;;;;;5096255;28;20472;-68
2022/05/15 10:45:50;;;;;;;9.05;5.22;;;16.80;99.90;;;;;;5091759;28;20024;-68
2022/05/15 10:48:19;;;;;;;9.70;4.38;;;16.80;99.90;;;;;;5091131;28;20028;-68
2022/05/15 10:50:56;;;;;;;9.10;4.10;;;16.70;99.90;;;;;;5091452;28;20026;-69
2022/05/15 10:59:30;;;;;;;8.77;4.57;;;16.80;99.90;;;;;;5089548;28;20047;-68
2022/05/15 11:02:08;;;;;;;8.43;5.22;;;16.80;99.90;;;;;;5071180;28;20028;-69
2022/05/15 11:04:54;;;;;;;;;;;17.00;99.90;;;;;;5088227;28;20047;-69
2022/05/15 11:07:21;;;;;;;11.65;4.80;;;17.00;99.60;;;;;;5111636;28;19987;-68
2022/05/15 11:10:00;;;;;;;14.67;5.47;;;16.80;98.90;;;;;;5111550;28;20027;-68
2022/05/15 11:12:47;;;;;;;9.88;5.22;;;16.60;99.40;;;;;;5114993;28;20278;-68
2022/05/15 11:15:13;;;;;;;17.65;5.95;;;16.60;99.90;;;;;;5115102;28;20015;-68
2022/05/15 11:17:53;;;;;;;10.02;5.05;;;16.60;99.90;;;;;;5098933;28;20098;-68
2022/05/15 11:20:28;;;;;;;10.80;5.88;;;16.50;99.90;;;;;;5093822;28;20032;-70
2022/05/15 11:23:22;;;;;;;7.85;4.53;;;16.60;99.90;;;;;;5114698;28;20047;-69
2022/05/15 11:25:58;;;;;;;10.85;4.80;;;16.70;99.90;;;;;;5102185;28;20119;-68
2022/05/15 11:28:27;;;;;;;10.60;5.53;;;16.60;99.90;;;;;;5094388;28;20098;-67
2022/05/15 11:31:04;;;;;;;15.43;5.82;;;16.60;99.90;;;;;;5107074;28;20031;-69
2022/05/15 11:33:48;;;;;;;13.30;5.47;;;16.50;99.90;;;;;;5094000;28;20487;-69
2022/05/15 11:36:26;;;;;;;12.68;5.70;;;16.50;99.90;;;;;;5106940;28;20506;-68
2022/05/15 11:39:00;;;;;;;16.05;6.45;;;16.40;99.90;;;;;;5089935;28;20043;-68
2022/05/15 11:41:31;;;;;;;10.63;6.90;;;16.30;99.90;;;;;;5082562;28;20031;-68
2022/05/15 11:44:01;;;;;;;16.80;6.32;;;16.20;99.90;;;;;;5085745;28;20435;-68
2022/05/15 11:46:45;;;;;;;15.15;7.50;;;16.20;99.90;;;;;;5073951;28;20024;-68
2022/05/15 11:49:30;;;;;;;16.65;7.22;;;16.10;99.90;;;;;;5074038;28;20021;-67
2022/05/15 11:52:23;;;;;;;12.73;7.30;;;16.00;99.90;;;;;;5082812;28;20480;-68
2022/05/15 11:54:52;;;;;;;12.32;7.05;;;16.00;99.90;;;;;;5094035;28;20028;-68
2022/05/15 11:57:39;;;;;;;18.98;7.88;;;16.00;99.90;;;;;;5094018;28;20042;-68
2022/05/15 12:00:08;;;;;;;;;;;16.00;99.90;;;;;;5084317;28;20031;-69
2022/05/15 12:02:34;;;;;;;13.50;6.70;;;16.10;99.90;;;;;;5073757;28;19908;-69
2022/05/15 12:05:20;;;;;;;12.30;7.32;;;16.10;99.90;;;;;;5073967;28;20496;-68
2022/05/15 12:07:58;;;;;;;12.65;6.75;;;16.20;99.90;;;;;;5073832;28;20028;-69
2022/05/15 12:10:47;;;;;;;13.50;7.13;;;16.20;99.90;;;;;;5073192;28;20392;-69
2022/05/15 12:13:30;;;;;;;15.15;6.97;;;16.20;99.90;;;;;;5075124;28;20515;-70
2022/05/15 12:16:20;;;;;;;10.43;6.55;;;16.20;99.90;;;;;;5082082;28;20045;-69
2022/05/15 12:18:53;;;;;;;16.92;7.55;;;16.30;99.90;;;;;;5093450;28;20028;-70
2022/05/15 12:21:23;;;;;;;16.48;7.78;;;16.50;99.90;;;;;;5091526;28;20028;-71
2022/05/15 12:26:45;;;;;;;11.02;6.88;;;17.10;99.90;;;;;;5093541;28;20495;-71
2022/05/15 12:29:46;;;;;;;11.70;6.55;;;17.40;99.90;;;;;;5090354;28;20021;-71
2022/05/15 12:32:19;;;;;;;13.45;6.70;;;17.60;99.90;;;;;;5091951;28;20035;-72
2022/05/15 12:34:48;;;;;;;11.82;6.30;;;17.80;99.90;;;;;;5081305;28;20028;-71
2022/05/15 12:37:21;;;;;;;15.70;7.35;;;17.90;99.90;;;;;;5093248;28;20085;-72
2022/05/15 12:39:50;;;;;;;13.35;6.82;;;18.00;99.90;;;;;;5086424;28;20028;-72
2022/05/15 12:42:36;;;;;;;13.18;6.95;;;17.90;99.90;;;;;;5084085;28;20016;-72
2022/05/15 12:45:02;;;;;;;15.27;7.80;;;17.90;99.90;;;;;;5082379;28;20047;-72
2022/05/15 12:47:32;;;;;;;12.85;7.57;;;17.80;99.90;;;;;;5075915;28;20029;-72
2022/05/15 12:50:01;;;;;;;14.35;7.45;;;17.70;99.90;;;;;;5080968;28;20024;-72
2022/05/15 12:52:31;;;;;;;11.63;7.15;;;17.60;99.90;;;;;;5083746;28;20031;-72
2022/05/15 12:55:10;;;;;;;12.82;6.95;;;17.50;99.90;;;;;;5084187;28;20028;-72
2022/05/15 12:57:47;;;;;;;12.98;6.97;;;17.50;99.90;;;;;;5093255;28;20028;-73
2022/05/15 13:00:18;;;;;;;12.00;7.70;;;17.70;99.90;;;;;;5090305;28;20030;-72
2022/05/15 13:02:44;;;;;;;11.38;6.68;;;17.90;99.90;;;;;;5092295;28;20039;-72
2022/05/15 13:05:19;;;;;;;11.32;5.93;;;18.10;99.90;;;;;;5073648;28;20445;-72
2022/05/15 13:07:44;;;;;;;11.20;6.07;;;18.20;99.90;;;;;;5084896;28;20016;-72
2022/05/15 13:10:14;;;;;;;12.43;6.20;;;18.40;99.90;;;;;;5084170;28;20016;-72
2022/05/15 13:13:01;;;;;;;9.75;5.30;;;18.60;99.90;;;;;;5083560;28;20327;-72
2022/05/15 13:15:29;;;;;;;10.73;5.63;;;18.90;99.90;;;;;;5085628;28;20068;-72
2022/05/15 13:17:57;;;;;;;9.90;6.28;;;19.20;99.90;;;;;;5085937;28;20451;-72
2022/05/15 13:20:26;;;;;;;8.98;6.07;;;19.30;99.90;;;;;;5087104;28;20119;-72
2022/05/15 13:22:54;;;;;;;11.55;6.00;;;19.10;99.90;;;;;;5085987;28;20136;-72
2022/05/15 13:25:33;;;;;;;10.35;6.15;;;19.00;99.90;;;;;;5086765;28;20028;-72